KMWC

Lawrence J Timmerman Airport

Milwaukee, Wisconsin, USA
METAR KMWC 151645Z 09006KT 10SM SKC 05/M01 A3022
Observed Flight Rules
Dec-15 @ 16:45 UTC (28 minutes ago) Visual Flight Rules
Wind Visibility Clouds
90° at 6 knots 10 miles
  • Clear skies
Temperatures Readings
Current 5°C / 41°F
Dewpoint -1°C / 30°F
Humidity 66%
Altimeter 30.22" Hg
Pressure 1023 hPa
Elevation 227
METAR KMWC 151645Z 09006KT 10SM SKC 05/M01 A3022
Observed Flight Rules
Dec-15 @ 16:45 UTC
(28 minutes ago)
VFR
Wind Visibility
90° at 6 knots 10 miles
Clouds
  • Clear skies
Temperature Dewpoint
5°C / 41°F -1°C / 30°F
Humidity Altimeter Pressure
66% 30.22" Hg 1023 hPa